Time;durP1;ratioP1;P1;durP2;ratioP2;P2;SDS_P1;SDS_P2;PMS_P1;PMS_P2;Temp;Humidity;BMP_temperature;BMP_pressure;BME280_temperature;BME280_humidity;BME280_pressure;Samples;Min_cycle;Max_cycle;Signal;HPM_P1;HPM_P2
2023/08/18 00:00:07;;;;;;;2.47;1.15;;;22.10;69.70;;;;;;5075536;28;20037;-64
2023/08/18 00:02:33;;;;;;;3.22;1.10;;;22.10;69.70;;;;;;5075878;28;20539;-64
2023/08/18 00:04:59;;;;;;;1.73;1.10;;;22.10;69.70;;;;;;5075628;28;20230;-64
2023/08/18 00:07:25;;;;;;;2.75;1.17;;;22.10;69.70;;;;;;5074701;28;20044;-64
2023/08/18 00:09:51;;;;;;;2.63;1.02;;;22.10;69.70;;;;;;5075177;28;20053;-64
2023/08/18 00:12:16;;;;;;;1.40;0.80;;;22.00;69.60;;;;;;5075701;28;20056;-64
2023/08/18 00:14:42;;;;;;;3.13;1.10;;;22.10;69.70;;;;;;5074489;28;20101;-64
2023/08/18 00:17:08;;;;;;;2.10;1.08;;;22.00;69.70;;;;;;5075531;28;20123;-64
2023/08/18 00:19:33;;;;;;;2.15;0.95;;;22.10;69.70;;;;;;5075514;28;20040;-64
2023/08/18 00:21:59;;;;;;;3.80;0.90;;;22.00;69.70;;;;;;5074632;28;20047;-65
2023/08/18 00:24:24;;;;;;;1.27;0.90;;;22.10;69.70;;;;;;5075265;28;20044;-64
2023/08/18 00:26:50;;;;;;;2.78;1.00;;;22.10;69.70;;;;;;5074966;28;20071;-64
2023/08/18 00:29:15;;;;;;;1.40;1.00;;;22.00;69.60;;;;;;5074499;28;20120;-64
2023/08/18 00:31:41;;;;;;;1.58;0.98;;;22.10;69.70;;;;;;5074977;28;20356;-64
2023/08/18 00:34:07;;;;;;;2.20;1.02;;;22.00;69.60;;;;;;5075140;28;20044;-64
2023/08/18 00:36:33;;;;;;;1.77;1.00;;;22.00;69.70;;;;;;5074058;28;20396;-64
2023/08/18 00:38:59;;;;;;;1.90;1.08;;;22.00;69.70;;;;;;5075245;28;20052;-64
2023/08/18 00:41:25;;;;;;;2.67;1.00;;;22.00;69.70;;;;;;5073723;28;20040;-64
2023/08/18 00:43:50;;;;;;;2.95;1.13;;;22.00;69.60;;;;;;5072843;28;20102;-64
2023/08/18 00:46:17;;;;;;;1.40;1.00;;;22.00;69.70;;;;;;5075081;28;20496;-64
2023/08/18 00:48:42;;;;;;;3.95;1.05;;;22.00;69.70;;;;;;5039159;28;20045;-64
2023/08/18 00:51:11;;;;;;;1.58;1.08;;;22.00;69.70;;;;;;5072943;28;20056;-64
2023/08/18 00:53:37;;;;;;;2.03;1.00;;;22.00;69.70;;;;;;5074739;28;20040;-64
2023/08/18 00:56:04;;;;;;;2.75;1.20;;;22.00;69.70;;;;;;5074744;28;20044;-64
2023/08/18 00:58:30;;;;;;;1.95;1.10;;;22.00;69.70;;;;;;5056137;28;20055;-64
2023/08/18 01:00:55;;;;;;;2.42;1.00;;;22.00;69.70;;;;;;5074328;28;20404;-64
2023/08/18 01:03:21;;;;;;;2.00;1.02;;;22.00;69.70;;;;;;5073180;28;20138;-64
2023/08/18 01:05:47;;;;;;;3.20;1.27;;;22.00;69.70;;;;;;5073623;28;20041;-64
2023/08/18 01:08:12;;;;;;;2.88;1.33;;;22.00;69.90;;;;;;5074652;28;20437;-65
2023/08/18 01:10:58;;;;;;;3.22;1.05;;;22.00;69.70;;;;;;5073384;28;20048;-65
2023/08/18 01:13:48;;;;;;;1.67;1.00;;;22.00;69.70;;;;;;5074487;28;20040;-64
2023/08/18 01:16:21;;;;;;;1.40;0.90;;;22.00;69.70;;;;;;5072966;28;20466;-64
2023/08/18 01:18:47;;;;;;;1.77;0.90;;;22.00;69.70;;;;;;5038987;28;20080;-64
2023/08/18 01:21:12;;;;;;;2.47;1.02;;;22.00;69.70;;;;;;5056175;28;20088;-64
2023/08/18 01:23:38;;;;;;;1.73;0.88;;;22.00;69.70;;;;;;5072694;28;20044;-64
2023/08/18 01:26:04;;;;;;;1.67;0.98;;;22.00;69.70;;;;;;5072136;28;20063;-64
2023/08/18 01:28:31;;;;;;;2.47;1.00;;;22.00;69.70;;;;;;5074228;28;20472;-64
2023/08/18 01:30:57;;;;;;;2.80;1.00;;;22.00;69.70;;;;;;5072619;28;20041;-64
2023/08/18 01:33:25;;;;;;;1.60;1.00;;;22.00;69.70;;;;;;5055675;28;20089;-64
2023/08/18 01:35:50;;;;;;;2.22;0.90;;;22.00;69.70;;;;;;5073152;28;20048;-64
2023/08/18 01:38:16;;;;;;;2.13;0.95;;;22.00;69.70;;;;;;5056048;28;20458;-64
2023/08/18 01:40:42;;;;;;;1.85;0.90;;;22.00;69.70;;;;;;5054803;28;20107;-64
2023/08/18 01:43:07;;;;;;;2.58;0.90;;;22.00;69.70;;;;;;5072325;28;20100;-64
2023/08/18 01:45:34;;;;;;;1.38;0.73;;;21.90;69.70;;;;;;5073798;28;20045;-64
2023/08/18 01:47:59;;;;;;;1.85;0.93;;;22.00;69.70;;;;;;5071707;28;20041;-64
2023/08/18 01:50:25;;;;;;;1.30;0.90;;;22.00;69.70;;;;;;5073569;28;20044;-64
2023/08/18 01:52:51;;;;;;;1.50;1.00;;;22.00;69.70;;;;;;5072802;28;20047;-64
2023/08/18 01:55:16;;;;;;;1.60;0.85;;;22.00;69.70;;;;;;5073516;28;20495;-64
2023/08/18 01:57:42;;;;;;;2.13;1.00;;;21.90;69.70;;;;;;5073275;28;20052;-64
2023/08/18 02:00:08;;;;;;;2.22;0.80;;;21.90;69.70;;;;;;5072647;28;20465;-63
2023/08/18 02:02:35;;;;;;;1.55;0.82;;;21.90;69.70;;;;;;5071581;28;20052;-64
2023/08/18 02:05:00;;;;;;;1.73;0.90;;;21.90;69.70;;;;;;5072826;28;20396;-65
2023/08/18 02:07:27;;;;;;;2.03;0.95;;;21.90;69.70;;;;;;5071193;28;20037;-64
2023/08/18 02:09:52;;;;;;;2.28;1.20;;;21.90;69.70;;;;;;5071395;28;20060;-64
2023/08/18 02:12:18;;;;;;;1.08;0.77;;;21.90;69.70;;;;;;5070551;28;20036;-65
2023/08/18 02:14:43;;;;;;;3.17;1.00;;;21.90;69.70;;;;;;5070757;28;20047;-64
2023/08/18 02:17:09;;;;;;;2.00;0.95;;;21.90;69.70;;;;;;5073293;28;20072;-64
2023/08/18 02:19:34;;;;;;;2.40;1.05;;;21.90;69.70;;;;;;5072752;28;20051;-64
2023/08/18 02:22:00;;;;;;;2.50;1.00;;;21.90;69.70;;;;;;5072425;28;20048;-64
2023/08/18 02:24:28;;;;;;;1.70;0.82;;;21.90;69.70;;;;;;5072884;28;20040;-64
2023/08/18 02:26:55;;;;;;;1.35;0.90;;;21.90;69.70;;;;;;5072577;28;20101;-64
2023/08/18 02:29:21;;;;;;;2.55;1.00;;;21.90;69.70;;;;;;5072329;28;20409;-64
2023/08/18 02:31:47;;;;;;;1.98;0.88;;;21.90;69.70;;;;;;5072793;28;20052;-64
2023/08/18 02:34:13;;;;;;;2.58;1.05;;;21.90;69.70;;;;;;5071693;28;20053;-64
2023/08/18 02:36:38;;;;;;;1.65;0.73;;;21.90;69.70;;;;;;5070544;28;20400;-64
2023/08/18 02:39:04;;;;;;;1.52;0.80;;;21.90;69.70;;;;;;5072848;28;20037;-64
2023/08/18 02:41:29;;;;;;;2.28;0.93;;;21.90;69.70;;;;;;5072591;28;20111;-64
2023/08/18 02:43:55;;;;;;;1.10;0.80;;;21.90;69.70;;;;;;5071611;28;20535;-64
2023/08/18 02:46:20;;;;;;;1.38;0.70;;;21.90;69.70;;;;;;5072695;28;20048;-64
2023/08/18 02:48:46;;;;;;;2.00;0.90;;;21.90;69.70;;;;;;5072517;28;20108;-64
2023/08/18 02:51:12;;;;;;;2.55;1.08;;;21.90;69.80;;;;;;5070645;28;20411;-64
2023/08/18 02:53:37;;;;;;;2.60;1.10;;;21.90;69.70;;;;;;5072551;28;20434;-64
2023/08/18 02:56:03;;;;;;;2.17;0.80;;;21.90;69.80;;;;;;5071782;28;20046;-64
2023/08/18 02:58:29;;;;;;;2.53;1.00;;;21.90;69.80;;;;;;5072798;28;20434;-64
2023/08/18 03:00:55;;;;;;;1.40;1.00;;;21.90;69.80;;;;;;5072632;28;20049;-65
2023/08/18 03:03:22;;;;;;;1.48;0.80;;;21.90;69.80;;;;;;5071873;28;20040;-64
2023/08/18 03:05:48;;;;;;;2.75;1.05;;;21.90;69.80;;;;;;5072168;28;20396;-64
2023/08/18 03:08:13;;;;;;;2.03;0.80;;;21.90;69.80;;;;;;5071196;28;20468;-64
2023/08/18 03:10:39;;;;;;;2.35;0.93;;;21.90;69.80;;;;;;5071311;28;20040;-64
2023/08/18 03:13:05;;;;;;;1.23;0.73;;;21.90;69.80;;;;;;5074897;28;20040;-64
2023/08/18 03:15:30;;;;;;;2.40;0.93;;;21.90;69.80;;;;;;5076796;28;20040;-64
2023/08/18 03:17:56;;;;;;;1.95;0.80;;;21.90;69.80;;;;;;5075656;28;20476;-64
2023/08/18 03:20:22;;;;;;;1.20;0.70;;;21.90;69.80;;;;;;5076688;28;20557;-64
2023/08/18 03:22:47;;;;;;;1.95;0.70;;;21.90;69.80;;;;;;5076218;28;20404;-64
2023/08/18 03:25:13;;;;;;;2.15;0.90;;;21.90;69.80;;;;;;5074251;28;20084;-64
2023/08/18 03:27:40;;;;;;;1.42;0.73;;;21.90;69.80;;;;;;5075885;28;20502;-64
2023/08/18 03:30:07;;;;;;;1.38;0.85;;;21.90;69.80;;;;;;5076336;28;20082;-64
2023/08/18 03:32:32;;;;;;;1.35;0.80;;;21.90;69.80;;;;;;5074441;28;20084;-64
2023/08/18 03:34:58;;;;;;;1.83;0.90;;;21.90;69.80;;;;;;5075770;28;20096;-64
2023/08/18 03:37:27;;;;;;;1.25;0.80;;;21.90;69.90;;;;;;5076380;28;20070;-64
2023/08/18 03:39:54;;;;;;;1.73;0.77;;;21.90;69.90;;;;;;5073606;28;20052;-65
2023/08/18 03:42:20;;;;;;;1.45;0.80;;;21.80;69.80;;;;;;5076352;28;20090;-64
2023/08/18 03:44:46;;;;;;;2.33;1.00;;;21.80;69.80;;;;;;5075926;28;20044;-65
2023/08/18 03:47:12;;;;;;;1.13;0.70;;;21.90;69.90;;;;;;5074152;28;20090;-64
2023/08/18 03:49:37;;;;;;;1.58;0.70;;;21.80;69.80;;;;;;5075790;28;20047;-64
2023/08/18 03:52:03;;;;;;;1.58;1.00;;;21.80;69.80;;;;;;5076042;28;20036;-64
2023/08/18 03:54:28;;;;;;;3.38;0.90;;;21.80;69.80;;;;;;5075161;28;20075;-64
2023/08/18 03:56:54;;;;;;;1.98;1.00;;;21.80;69.80;;;;;;5075516;28;20523;-64
2023/08/18 03:59:20;;;;;;;1.77;0.85;;;21.80;69.90;;;;;;5075148;28;20041;-65
2023/08/18 04:01:46;;;;;;;2.67;0.73;;;21.80;69.90;;;;;;5073625;28;20395;-64
2023/08/18 04:04:11;;;;;;;1.50;0.88;;;21.80;69.90;;;;;;5073983;28;20045;-64
2023/08/18 04:06:37;;;;;;;1.83;0.80;;;21.80;69.80;;;;;;5073389;28;20041;-64
2023/08/18 04:09:06;;;;;;;2.25;0.80;;;21.80;69.90;;;;;;5073778;28;20052;-64
2023/08/18 04:11:34;;;;;;;0.98;0.70;;;21.80;69.90;;;;;;5075412;28;20056;-64
2023/08/18 04:14:00;;;;;;;1.30;0.80;;;21.80;69.90;;;;;;5074932;28;20040;-64
2023/08/18 04:16:25;;;;;;;2.20;0.80;;;21.80;69.90;;;;;;5075540;28;20044;-64
2023/08/18 04:18:54;;;;;;;1.90;0.80;;;21.80;69.90;;;;;;5075049;28;20050;-64
2023/08/18 04:21:20;;;;;;;2.25;0.82;;;21.80;69.90;;;;;;5074830;28;20504;-64
2023/08/18 04:23:46;;;;;;;1.33;0.70;;;21.80;69.90;;;;;;5073735;28;20044;-64
2023/08/18 04:26:12;;;;;;;1.58;0.68;;;21.80;69.90;;;;;;5075090;28;20048;-64
2023/08/18 04:28:38;;;;;;;1.77;0.70;;;21.80;69.90;;;;;;5074352;28;20403;-64
2023/08/18 04:31:03;;;;;;;1.60;0.70;;;21.80;69.90;;;;;;5075717;28;20041;-65
2023/08/18 04:33:32;;;;;;;2.47;0.98;;;21.80;69.90;;;;;;5073978;28;20040;-64
2023/08/18 04:35:58;;;;;;;;;;;21.80;70.00;;;;;;5106892;28;20407;-64
2023/08/18 04:38:24;;;;;;;1.23;0.70;;;21.80;69.90;;;;;;5075206;28;19921;-64
2023/08/18 04:41:02;;;;;;;2.13;0.80;;;21.80;70.00;;;;;;5074804;28;20071;-64
2023/08/18 04:43:28;;;;;;;2.00;0.90;;;21.80;70.00;;;;;;5074368;28;20036;-64
2023/08/18 04:45:54;;;;;;;2.38;0.77;;;21.80;70.00;;;;;;5074794;28;20044;-64
2023/08/18 04:48:20;;;;;;;2.80;0.82;;;21.80;70.60;;;;;;5073827;28;20045;-64
2023/08/18 04:50:49;;;;;;;1.00;0.60;;;21.80;70.00;;;;;;5073762;28;20040;-64
2023/08/18 04:53:15;;;;;;;2.15;0.70;;;21.80;70.00;;;;;;5074959;28;20032;-64
2023/08/18 04:55:41;;;;;;;2.47;0.90;;;21.80;70.00;;;;;;5073642;28;20484;-64
2023/08/18 04:58:12;;;;;;;2.22;0.98;;;21.80;70.00;;;;;;5074892;28;20036;-64
2023/08/18 05:00:43;;;;;;;2.13;0.85;;;21.80;70.00;;;;;;5074538;28;20040;-64
2023/08/18 05:03:09;;;;;;;1.73;0.85;;;21.80;70.00;;;;;;5072491;28;20056;-64
2023/08/18 05:06:00;;;;;;;2.17;0.80;;;21.70;70.00;;;;;;5074347;28;20040;-64
2023/08/18 05:08:26;;;;;;;3.17;0.88;;;21.80;70.00;;;;;;5073376;28;20040;-64
2023/08/18 05:10:52;;;;;;;1.60;0.68;;;21.80;70.00;;;;;;5073264;28;20067;-64
2023/08/18 05:13:18;;;;;;;2.10;0.80;;;21.80;70.00;;;;;;5074374;28;20032;-64
2023/08/18 05:15:43;;;;;;;1.27;0.70;;;21.80;70.10;;;;;;5073968;28;20122;-64
2023/08/18 05:18:09;;;;;;;1.77;0.75;;;21.80;70.10;;;;;;5073373;28;20060;-64
2023/08/18 05:20:34;;;;;;;1.42;0.90;;;21.80;70.10;;;;;;5074046;28;20036;-64
2023/08/18 05:23:00;;;;;;;2.35;0.80;;;21.70;70.60;;;;;;5073019;28;20110;-64
2023/08/18 05:25:26;;;;;;;2.88;1.10;;;21.70;70.00;;;;;;5073136;28;20036;-64
2023/08/18 05:27:54;;;;;;;2.08;0.80;;;21.80;70.10;;;;;;5073974;28;20041;-64
2023/08/18 05:30:20;;;;;;;1.65;0.80;;;21.70;70.10;;;;;;5073481;28;20475;-64
2023/08/18 05:32:46;;;;;;;1.85;0.80;;;21.70;70.10;;;;;;5071667;28;20084;-64
2023/08/18 05:35:11;;;;;;;1.20;0.63;;;21.70;70.10;;;;;;5073438;28;20128;-64
2023/08/18 05:37:37;;;;;;;1.90;0.90;;;21.70;70.10;;;;;;5073542;28;20447;-64
2023/08/18 05:40:03;;;;;;;2.65;0.85;;;21.70;70.10;;;;;;5071645;28;20087;-64
2023/08/18 05:42:31;;;;;;;2.03;0.77;;;21.70;70.10;;;;;;5073762;28;20072;-64
2023/08/18 05:44:56;;;;;;;1.20;0.68;;;21.70;70.10;;;;;;5072901;28;20082;-64
2023/08/18 05:47:22;;;;;;;1.95;0.90;;;21.70;70.10;;;;;;5073904;28;20052;-64
2023/08/18 05:49:50;;;;;;;1.25;0.80;;;21.70;70.10;;;;;;5073651;28;20553;-64
2023/08/18 05:52:16;;;;;;;2.42;0.80;;;21.70;70.20;;;;;;5073171;28;20131;-64
2023/08/18 05:54:45;;;;;;;1.55;0.73;;;21.70;70.10;;;;;;5073317;28;20132;-64
2023/08/18 05:57:10;;;;;;;1.20;0.70;;;21.70;70.20;;;;;;5073464;28;20044;-64
2023/08/18 05:59:36;;;;;;;1.58;0.90;;;21.70;70.20;;;;;;5072455;28;20093;-64
2023/08/18 06:02:03;;;;;;;1.58;1.00;;;21.70;70.20;;;;;;5072166;28;20044;-64
2023/08/18 06:04:31;;;;;;;1.95;0.80;;;21.70;70.20;;;;;;5073490;28;20037;-64
2023/08/18 06:06:57;;;;;;;1.85;0.75;;;21.70;70.20;;;;;;5070996;28;20040;-64
2023/08/18 06:09:22;;;;;;;2.92;0.70;;;21.70;70.20;;;;;;5071941;28;20169;-64
2023/08/18 06:11:48;;;;;;;1.85;0.90;;;21.70;70.80;;;;;;5072636;28;20059;-64
2023/08/18 06:14:14;;;;;;;2.38;0.80;;;21.70;70.20;;;;;;5072257;28;20041;-64
2023/08/18 06:16:39;;;;;;;1.35;0.60;;;21.70;70.20;;;;;;5071626;28;20048;-64
2023/08/18 06:19:05;;;;;;;1.55;0.77;;;21.70;70.20;;;;;;5073379;28;20040;-64
2023/08/18 06:21:30;;;;;;;1.58;0.90;;;21.70;70.20;;;;;;5072360;28;20037;-64
2023/08/18 06:23:56;;;;;;;1.42;0.75;;;21.70;70.20;;;;;;5072744;28;20101;-64
2023/08/18 06:26:21;;;;;;;2.17;0.80;;;21.70;70.20;;;;;;5073060;28;20047;-64
2023/08/18 06:28:47;;;;;;;2.67;1.00;;;21.70;70.20;;;;;;5071698;28;20408;-64
2023/08/18 06:31:12;;;;;;;1.70;0.70;;;21.70;70.20;;;;;;5073083;28;20056;-64
2023/08/18 06:33:38;;;;;;;1.40;0.85;;;21.70;70.20;;;;;;5071351;28;20131;-64
2023/08/18 06:36:04;;;;;;;1.30;0.70;;;21.70;70.20;;;;;;5070652;28;20052;-64
2023/08/18 06:38:36;;;;;;;1.73;1.00;;;21.60;70.20;;;;;;5072786;28;20037;-64
2023/08/18 06:41:01;;;;;;;1.55;0.70;;;21.70;70.20;;;;;;5072041;28;20063;-64
2023/08/18 06:43:27;;;;;;;1.60;0.80;;;21.70;70.20;;;;;;5072910;28;20044;-64
2023/08/18 06:45:52;;;;;;;2.40;0.90;;;21.70;70.20;;;;;;5072359;28;20072;-64
2023/08/18 06:48:18;;;;;;;2.05;0.80;;;21.70;70.20;;;;;;5071343;28;20058;-64
2023/08/18 06:50:44;;;;;;;2.10;0.80;;;21.70;70.20;;;;;;5071150;28;20040;-64
2023/08/18 06:53:09;;;;;;;1.48;0.70;;;21.70;70.30;;;;;;5072752;28;20052;-64
2023/08/18 06:55:35;;;;;;;1.48;0.88;;;21.70;70.30;;;;;;5071493;28;20534;-64
2023/08/18 06:58:01;;;;;;;1.55;0.73;;;21.60;70.20;;;;;;5071611;28;20055;-62
2023/08/18 07:00:26;;;;;;;2.15;0.90;;;21.70;70.30;;;;;;5072505;28;20044;-62
2023/08/18 07:02:53;;;;;;;2.20;0.95;;;21.60;70.20;;;;;;5071694;28;20393;-62
2023/08/18 07:05:19;;;;;;;1.93;0.90;;;21.70;70.30;;;;;;5072950;28;20048;-63
2023/08/18 07:07:45;;;;;;;2.33;0.90;;;21.60;70.80;;;;;;5072352;28;20047;-62
2023/08/18 07:10:12;;;;;;;2.22;0.98;;;21.70;70.30;;;;;;5070472;28;20400;-62
2023/08/18 07:12:37;;;;;;;2.38;1.00;;;21.70;70.30;;;;;;5072375;28;20040;-62
2023/08/18 07:15:03;;;;;;;1.95;0.95;;;21.70;70.30;;;;;;5072444;28;20048;-62
2023/08/18 07:17:29;;;;;;;1.63;0.70;;;21.70;70.40;;;;;;5104334;28;20120;-62
2023/08/18 07:19:54;;;;;;;4.10;1.23;;;21.70;70.30;;;;;;5072203;28;20044;-62
2023/08/18 07:22:20;;;;;;;3.03;1.05;;;21.70;70.40;;;;;;5072742;28;20036;-62
2023/08/18 07:24:46;;;;;;;2.72;0.90;;;21.70;70.40;;;;;;5070027;28;20119;-62
2023/08/18 07:27:11;;;;;;;2.60;1.05;;;21.70;70.40;;;;;;5072330;28;20056;-62
2023/08/18 07:29:37;;;;;;;1.80;0.90;;;21.70;71.00;;;;;;5071729;28;20036;-62
2023/08/18 07:32:03;;;;;;;2.80;1.08;;;21.70;70.40;;;;;;5071358;28;20516;-62
2023/08/18 07:34:28;;;;;;;2.42;0.93;;;21.70;70.40;;;;;;5071847;28;20059;-62
2023/08/18 07:36:54;;;;;;;2.65;1.13;;;21.70;70.40;;;;;;5072192;28;20044;-62
2023/08/18 07:39:19;;;;;;;2.00;1.17;;;21.70;70.40;;;;;;5071426;28;20036;-62
2023/08/18 07:41:45;;;;;;;2.10;0.80;;;21.70;70.40;;;;;;5104331;28;20459;-62
2023/08/18 07:44:12;;;;;;;1.85;0.85;;;21.70;70.40;;;;;;5070922;28;20080;-62
2023/08/18 07:46:38;;;;;;;3.70;1.38;;;21.70;70.40;;;;;;5070014;28;20099;-62
2023/08/18 07:49:04;;;;;;;2.28;0.90;;;21.70;70.50;;;;;;5072074;28;20476;-62
2023/08/18 07:51:30;;;;;;;3.20;1.10;;;21.70;70.50;;;;;;5071484;28;20084;-62
2023/08/18 07:53:55;;;;;;;2.28;1.17;;;21.70;70.50;;;;;;5072130;28;20040;-62
2023/08/18 07:56:21;;;;;;;2.83;1.25;;;21.70;70.50;;;;;;5072061;28;20123;-62
2023/08/18 07:58:47;;;;;;;2.75;1.10;;;21.70;70.50;;;;;;5071875;28;20037;-63
2023/08/18 08:01:12;;;;;;;3.03;1.00;;;21.70;70.50;;;;;;5075881;28;20063;-62
2023/08/18 08:03:38;;;;;;;3.88;1.00;;;21.80;70.50;;;;;;5075349;28;20090;-62
2023/08/18 08:06:06;;;;;;;2.30;0.98;;;21.70;70.50;;;;;;5075129;28;20043;-62
2023/08/18 08:08:33;;;;;;;3.05;1.10;;;21.70;70.50;;;;;;5075783;28;20040;-62
2023/08/18 08:10:58;;;;;;;3.47;1.40;;;21.80;70.50;;;;;;5075368;28;20040;-63
2023/08/18 08:13:24;;;;;;;3.28;1.38;;;21.80;70.50;;;;;;5074923;28;20502;-62
2023/08/18 08:15:50;;;;;;;2.35;1.20;;;21.80;70.50;;;;;;5075359;28;20165;-62
2023/08/18 08:18:18;;;;;;;3.35;1.17;;;21.80;70.50;;;;;;5075662;28;20059;-63
2023/08/18 08:20:43;;;;;;;4.25;1.27;;;21.80;70.50;;;;;;5073056;28;20415;-62
2023/08/18 08:23:09;;;;;;;3.63;1.25;;;21.80;70.40;;;;;;5073909;28;20480;-62
2023/08/18 08:25:35;;;;;;;3.33;1.25;;;21.80;70.40;;;;;;5074971;28;20070;-62
2023/08/18 08:28:04;;;;;;;2.65;1.30;;;21.80;70.40;;;;;;5074612;28;20038;-62
2023/08/18 08:30:30;;;;;;;3.17;1.40;;;21.80;70.40;;;;;;5075323;28;20126;-62
2023/08/18 08:32:55;;;;;;;2.33;1.10;;;21.80;70.40;;;;;;5075099;28;20064;-62
2023/08/18 08:35:21;;;;;;;2.75;1.08;;;21.90;70.40;;;;;;5072953;28;20056;-63
2023/08/18 08:37:47;;;;;;;3.20;1.00;;;21.90;70.40;;;;;;5074728;28;20055;-62
2023/08/18 08:40:18;;;;;;;2.97;1.23;;;21.90;70.40;;;;;;5074728;28;20119;-62
2023/08/18 08:42:44;;;;;;;3.33;1.13;;;21.90;70.40;;;;;;5074139;28;20135;-62
2023/08/18 08:45:09;;;;;;;3.00;1.08;;;21.90;70.50;;;;;;5073658;28;20492;-62
2023/08/18 08:47:35;;;;;;;3.70;1.30;;;21.90;70.40;;;;;;5074577;28;20039;-62
2023/08/18 08:50:02;;;;;;;3.55;1.33;;;21.90;70.50;;;;;;5074305;28;20037;-62
2023/08/18 08:52:28;;;;;;;3.63;1.40;;;21.90;70.50;;;;;;5074608;28;20408;-63
2023/08/18 08:54:57;;;;;;;3.47;1.52;;;21.90;70.50;;;;;;5072359;28;20044;-63
2023/08/18 08:57:23;;;;;;;3.33;1.33;;;21.90;70.50;;;;;;5075145;28;20500;-62
2023/08/18 08:59:49;;;;;;;3.38;1.42;;;21.90;70.50;;;;;;5073022;28;20036;-63
2023/08/18 09:02:15;;;;;;;4.72;1.40;;;22.00;70.50;;;;;;5073863;28;20045;-63
2023/08/18 09:04:40;;;;;;;2.75;1.50;;;21.90;70.40;;;;;;5074859;28;20044;-63
2023/08/18 09:07:08;;;;;;;4.20;1.48;;;22.00;70.40;;;;;;5074427;28;20059;-63
2023/08/18 09:09:34;;;;;;;3.78;1.30;;;22.00;70.40;;;;;;5072829;28;20048;-62
2023/08/18 09:12:00;;;;;;;3.10;1.42;;;22.00;70.40;;;;;;5074475;28;20047;-63
2023/08/18 09:14:26;;;;;;;4.30;1.50;;;22.00;70.40;;;;;;5074403;28;20037;-62
2023/08/18 09:16:52;;;;;;;3.35;1.48;;;22.00;70.40;;;;;;5073279;28;20063;-63
2023/08/18 09:19:18;;;;;;;3.72;1.40;;;22.00;70.50;;;;;;5074465;28;20049;-63
2023/08/18 09:21:43;;;;;;;3.72;1.48;;;22.00;70.60;;;;;;5072702;28;20106;-63
2023/08/18 09:24:09;;;;;;;5.20;1.63;;;22.00;70.60;;;;;;5073349;28;20487;-62
2023/08/18 09:26:35;;;;;;;3.53;1.60;;;22.00;70.60;;;;;;5073885;28;20044;-62
2023/08/18 09:29:02;;;;;;;3.50;1.58;;;22.00;70.60;;;;;;5074318;28;20051;-62
2023/08/18 09:31:29;;;;;;;3.10;1.50;;;22.00;70.70;;;;;;5105814;28;20396;-62
2023/08/18 09:33:54;;;;;;;3.60;1.70;;;22.00;70.60;;;;;;5073729;28;20048;-62
2023/08/18 09:36:22;;;;;;;;;;;22.00;70.60;;;;;;5074617;28;20045;-62
2023/08/18 09:38:48;;;;;;;4.95;1.92;;;22.00;70.70;;;;;;5071595;28;19927;-62
2023/08/18 09:41:13;;;;;;;2.88;1.40;;;22.00;70.60;;;;;;5073862;28;20040;-62
2023/08/18 09:43:39;;;;;;;3.03;1.42;;;22.00;70.60;;;;;;5073662;28;20097;-62
2023/08/18 09:46:08;;;;;;;3.92;1.45;;;22.00;70.70;;;;;;5073039;28;20036;-63
2023/08/18 09:48:34;;;;;;;3.65;1.38;;;22.00;70.70;;;;;;5073169;28;20391;-63
2023/08/18 09:51:00;;;;;;;5.35;1.95;;;22.00;70.70;;;;;;5072945;28;20044;-63
2023/08/18 09:53:32;;;;;;;3.10;1.50;;;22.00;70.70;;;;;;5073994;28;20041;-63
2023/08/18 09:56:04;;;;;;;4.45;1.65;;;22.00;70.70;;;;;;5072096;28;20050;-62
2023/08/18 09:58:35;;;;;;;3.95;1.55;;;22.00;70.70;;;;;;5072815;28;20043;-63
2023/08/18 10:01:02;;;;;;;3.05;1.50;;;22.10;70.80;;;;;;5055520;28;20040;-63
2023/08/18 10:03:27;;;;;;;4.43;1.90;;;22.10;70.80;;;;;;5072070;28;20051;-62
2023/08/18 10:05:53;;;;;;;3.38;1.60;;;22.10;70.80;;;;;;5054496;28;20049;-62
2023/08/18 10:08:21;;;;;;;4.05;1.60;;;22.10;70.80;;;;;;5073416;28;20033;-62
2023/08/18 10:10:46;;;;;;;3.30;1.70;;;22.10;70.80;;;;;;5072091;28;20131;-63
2023/08/18 10:13:12;;;;;;;3.60;1.55;;;22.10;70.80;;;;;;5071371;28;20127;-62
2023/08/18 10:15:37;;;;;;;3.45;1.63;;;22.10;70.80;;;;;;5071892;28;20132;-62
2023/08/18 10:18:08;;;;;;;4.32;1.90;;;22.10;70.80;;;;;;5072112;28;20139;-62
2023/08/18 10:20:34;;;;;;;3.40;1.55;;;22.10;70.80;;;;;;5071245;28;20040;-63
2023/08/18 10:22:59;;;;;;;4.28;1.77;;;22.10;70.80;;;;;;5073215;28;20476;-63
2023/08/18 10:25:26;;;;;;;2.72;1.45;;;22.10;71.40;;;;;;5072888;28;20101;-62
2023/08/18 10:27:51;;;;;;;3.15;1.52;;;22.20;70.90;;;;;;5070753;28;20041;-62
2023/08/18 10:30:17;;;;;;;3.45;1.77;;;22.20;70.90;;;;;;5071766;28;20055;-62
2023/08/18 10:32:42;;;;;;;5.20;2.00;;;22.20;70.80;;;;;;5072939;28;20048;-63
2023/08/18 10:35:21;;;;;;;3.22;1.77;;;22.20;70.80;;;;;;5104715;28;20119;-63
2023/08/18 10:37:53;;;;;;;3.42;1.98;;;22.20;70.90;;;;;;5072686;28;20123;-62
2023/08/18 10:40:33;;;;;;;3.38;1.52;;;22.20;70.90;;;;;;5071946;28;20124;-62
2023/08/18 10:43:07;;;;;;;3.13;1.58;;;22.20;70.90;;;;;;5072684;28;20056;-62
2023/08/18 10:45:33;;;;;;;3.88;1.42;;;22.20;70.90;;;;;;5072906;28;20097;-62
2023/08/18 10:48:00;;;;;;;3.65;1.63;;;22.20;70.80;;;;;;5072211;28;20044;-62
2023/08/18 10:50:29;;;;;;;2.42;1.40;;;22.30;71.00;;;;;;5071399;28;20496;-62
2023/08/18 10:52:55;;;;;;;3.55;1.73;;;22.30;71.00;;;;;;5072695;28;20044;-62
2023/08/18 10:55:22;;;;;;;4.28;2.10;;;22.30;71.00;;;;;;5071794;28;20043;-63
2023/08/18 10:57:48;;;;;;;3.95;1.80;;;22.30;71.10;;;;;;5072539;28;20040;-63
2023/08/18 11:00:15;;;;;;;4.03;2.03;;;22.30;71.10;;;;;;5072734;28;20055;-63
2023/08/18 11:02:42;;;;;;;3.37;2.10;;;22.30;71.10;;;;;;5071630;28;20036;-62
2023/08/18 11:05:08;;;;;;;2.70;1.70;;;22.30;71.10;;;;;;5071526;28;20472;-62
2023/08/18 11:07:33;;;;;;;3.50;1.50;;;22.30;71.10;;;;;;5072238;28;20101;-62
2023/08/18 11:09:59;;;;;;;3.88;1.90;;;22.30;71.00;;;;;;5071596;28;20056;-62
2023/08/18 11:12:25;;;;;;;3.40;1.75;;;22.40;71.10;;;;;;5071197;28;20072;-62
2023/08/18 11:14:50;;;;;;;4.75;2.10;;;22.40;71.70;;;;;;5072415;28;20128;-62
2023/08/18 11:17:16;;;;;;;3.70;1.73;;;22.40;71.10;;;;;;5071788;28;20040;-62
2023/08/18 11:19:42;;;;;;;3.25;1.70;;;22.40;71.10;;;;;;5072265;28;20037;-62
2023/08/18 11:22:07;;;;;;;3.17;1.65;;;22.40;71.10;;;;;;5072548;28;20040;-63
2023/08/18 11:24:34;;;;;;;4.00;1.85;;;22.40;71.10;;;;;;5071524;28;20513;-62
2023/08/18 11:27:01;;;;;;;3.22;1.75;;;22.40;71.10;;;;;;5071309;28;20391;-63
2023/08/18 11:29:27;;;;;;;3.15;1.70;;;22.40;71.20;;;;;;5070551;28;20178;-62
2023/08/18 11:31:52;;;;;;;3.25;1.67;;;22.40;71.20;;;;;;5071828;28;20392;-63
2023/08/18 11:34:18;;;;;;;4.18;2.20;;;22.40;71.20;;;;;;5073539;28;20049;-62
2023/08/18 11:36:44;;;;;;;3.15;1.73;;;22.40;71.20;;;;;;5073993;28;20051;-62
2023/08/18 11:39:11;;;;;;;2.65;1.75;;;22.50;71.20;;;;;;5076256;28;20052;-62
2023/08/18 11:41:41;;;;;;;3.35;2.03;;;22.40;71.20;;;;;;5075651;28;20349;-62
2023/08/18 11:44:07;;;;;;;2.75;1.77;;;22.40;71.20;;;;;;5075500;28;20036;-63
2023/08/18 11:46:34;;;;;;;3.55;1.80;;;22.40;71.20;;;;;;5076106;28;20522;-62
2023/08/18 11:49:02;;;;;;;4.22;1.85;;;22.40;71.20;;;;;;5074788;28;20037;-62
2023/08/18 11:51:28;;;;;;;3.65;2.05;;;22.50;71.30;;;;;;5075266;28;20036;-62
2023/08/18 11:53:54;;;;;;;2.83;1.80;;;22.50;71.30;;;;;;5075766;28;20094;-63
2023/08/18 11:56:20;;;;;;;2.25;1.38;;;22.50;71.30;;;;;;5075696;28;20128;-62
2023/08/18 11:58:45;;;;;;;2.65;1.70;;;22.50;71.30;;;;;;5074953;28;20122;-63
2023/08/18 12:01:11;;;;;;;3.03;1.65;;;22.50;71.40;;;;;;5075683;28;20076;-62
2023/08/18 12:03:37;;;;;;;3.17;1.90;;;22.50;71.40;;;;;;5075598;28;20072;-63
2023/08/18 12:06:04;;;;;;;4.53;1.85;;;22.50;71.30;;;;;;5075063;28;20066;-63
2023/08/18 12:08:29;;;;;;;3.10;1.98;;;22.50;71.30;;;;;;5075555;28;20492;-63
2023/08/18 12:10:57;;;;;;;5.85;2.28;;;22.60;71.40;;;;;;5075182;28;20143;-63
2023/08/18 12:13:22;;;;;;;3.17;1.83;;;22.60;71.40;;;;;;5075144;28;20044;-63
2023/08/18 12:15:48;;;;;;;3.50;1.80;;;22.60;71.40;;;;;;5075132;28;20143;-62
2023/08/18 12:18:14;;;;;;;3.30;1.92;;;22.60;71.40;;;;;;5075049;28;20047;-63
2023/08/18 12:20:42;;;;;;;3.78;2.15;;;22.60;71.40;;;;;;5074751;28;20099;-63
2023/08/18 12:23:11;;;;;;;3.85;2.15;;;22.60;71.40;;;;;;5075590;28;20086;-62
2023/08/18 12:25:36;;;;;;;3.25;1.80;;;22.60;71.40;;;;;;5075120;28;20076;-62
2023/08/18 12:28:03;;;;;;;3.50;2.10;;;22.60;71.40;;;;;;5074708;28;20055;-62
2023/08/18 12:30:29;;;;;;;3.83;2.30;;;22.60;71.40;;;;;;5075408;28;20048;-62
2023/08/18 12:32:54;;;;;;;4.13;2.10;;;22.70;71.50;;;;;;5072942;28;20090;-63
2023/08/18 12:35:20;;;;;;;2.88;1.80;;;22.70;71.40;;;;;;5074930;28;20055;-63
2023/08/18 12:37:46;;;;;;;3.45;2.05;;;22.70;71.40;;;;;;5074729;28;20416;-62
2023/08/18 12:40:11;;;;;;;4.05;2.28;;;22.70;71.40;;;;;;5074285;28;20039;-63
2023/08/18 12:42:38;;;;;;;3.35;2.00;;;22.80;71.40;;;;;;5073632;28;20500;-63